High Desert Yearling Classic - 380 Miles Dry Lakes Nevada

Station: Dry Lakes, Nevada - A Race

Distance: 380 Miles    

Release: 10-Jun-2017 07:15

Weather Release: Sunny Clear    Arrival:

Wind at Release: 0     Wind at Arrival:

Temp at Release: °    Temp at Arrival: °

Lofts: 71

Birds: 134

Clocked: 81

Good Luck to Everyone!
Drops Pos Breeder Pigeon Name Color Sex Ent Arrival Speed To Win Eligible
1 Mc Laughlin Lofts - MA 0544-AU16-MCLO BB C 1 14:23:05.00 1562.313 00:00:00 Yes
2 Ray Sackett - ID 1208-AU16-IDA BB C 1 14:23:07.00 1562.191 00:00:02 Yes
- 1-DROP 14:23:06.00 1561.191
3 Twin Loft & Joe - MD 60303-IF16-BWI Judith Alice BC H 1 14:39:50.00 1503.484 00:16:45 Yes
4 Scott/Carol Team - UT 0239-AU16-DWI BB C 1 14:40:06.00 1502.584 00:17:01 Yes
5 Scott/Carol Team - UT 0256-AU16-DWI BB H 2 14:40:15.00 1502.077 00:17:10 Yes
6 Baldwin & Tilson - NC 6371-AU16-TENT BB H 1 14:40:36.00 1500.898 00:17:31 Yes
7 Ganus Family Loft - IN 0966-AU16-GFL BB H 1 14:40:47.00 1500.280 00:17:42 Yes
8 Racing Pigeon Mall - WA 0649-AU16-RPM BLK C 1 14:40:49.00 1500.168 00:17:44 Yes
9 Stella Loft - TX 48087-AU16-AA BB H 1 14:41:13.00 1498.823 00:18:08 Yes
10 Silver Dollar Loft - CO 0113-AU16-SD BCWF H 1 14:48:54.00 1473.452 00:25:49 Yes
10 Silver Dollar Loft - CO 0111-AU16-SD WHT H 2 14:48:54.00 1473.452 00:25:49 Yes
12 Frank Locante - WI 16040-AU16-FRLO BC H 1 14:49:00.00 1473.128 00:25:55 Yes
13 Marty Hansen - CA 36644-AU16-AA BCPD H 1 14:49:16.00 1472.263 00:26:11 Yes
14 Silver Dollar Loft - CO 0118-AU16-SD BC C 3 14:49:32.00 1471.399 00:26:27 Yes
15 Bert Bruno - UT 24633-AU16-FOYS BC H 1 15:29:31.00 1352.432 01:06:26 Yes
16 Nanez Family Lofts - WI 38346-AU16-JEDD BC C 1 16:25:11.00 1215.595 02:02:06 Yes
17 J I L - CA 0881-AU16-DADO " Miracle Worker " BB H 1 17:22:19.00 1101.238 02:59:14 Yes
18 Bert Bruno - UT 0996-IF16-NWC BC H 2 18:01:08.00 1035.080 03:38:03 Yes
19 Baldwin & Tilson - NC 6386-AU16-TENT BB H 2 18:01:15.00 1034.894 03:38:10 Yes
20 Hi-Cal Connection - CA 0739-AU16-HICA BB H 1 18:18:11.00 1008.469 03:55:06 Yes
21 Dave Dudley - CO 16159-AU16-PUEB BB C 1 18:41:53.00 973.673 04:18:48 Yes
22 Eagle Ridge Lofts - WY 16038-AU16-EAGL BCWF H 1 18:43:13.00 971.787 04:20:08 Yes
23 Frank Locante - WI 16046-AU16-FRLO BCWF H 2 18:43:29.00 971.411 04:20:24 Yes
24 Scott/Carol Team - UT 0260-AU16-DWI BBWF H 3 19:30:45.00 909.004 05:07:40 Yes
25 Haack Loft - CA 3172-AU16-JEDD BB C 1 19:30:47.00 908.963 05:07:42 Yes
26 F & D Lofts - AB 16124-AU16-FD BC H 1 19:30:52.00 908.860 05:07:47 Yes
27 Hotrocks Loft - UT 0555-AU16-WFA BBWF C 1 19:30:53.00 908.840 05:07:48 Yes
28 Jones Boys - UT 6984-AU16-SLI BC C 1 19:59:01.00 875.374 05:35:56 Yes
29 Silver Dollar Loft - CO 0112-AU16-SD BB H 4 20:12:22.00 860.340 05:49:17 Yes
30 Baldwin & Tilson - NC 6367-AU16-TENT BB C 3 20:13:31.00 859.070 05:50:26 Yes
31 Bert Bruno - UT 24637-AU16-FOYS BB C 3 20:15:25.00 856.978 05:52:20 Yes
32 Bob Lehman - PA 0985-IF16-PGC BCWF H 1 20:26:55.00 844.533 06:03:50 Yes
33 Heritage Loft - UT 85356-AU16-ARPU BB H 1 20:32:07.00 839.024 06:09:02 Yes
34 2nd Chance Loft - ID 55483-AU16-ARPU 64x25 BB H 1 21:12:26.00 798.631 06:49:21 Yes
35 Racing Pigeon Mall - WA 0645-AU16-RPM BLK H 2 2017-06-11 06:09:12.00 732.370 08:05:07 Yes
36 Chen Loft - PA 0467-AU16-TFC BC C 1 2017-06-11 07:32:40.00 671.037 09:28:35 Yes
37 Chen Loft - PA 0100-IF16-LU BB H 2 2017-06-11 07:44:43.00 663.021 09:40:38 Yes
38 Adirondack Team - NY 28328-AU16-AA BBSP C 1 2017-06-11 07:44:48.00 662.966 09:40:43 Yes
39 Only One No1 - ME 0039-IF16-BID BB C 1 2017-06-11 08:07:12.00 648.565 10:03:07 Yes
40 Heritage Loft - UT 87772-AU16-ARPU BB H 2 2017-06-11 08:12:33.00 645.217 10:08:28 Yes
41 D & L Lofts - BC 16107-CU16-CU BC C 1 2017-06-11 08:26:37.00 636.579 10:22:32 Yes
42 Baldwin & Tilson - NC 6378-AU16-TENT BB H 4 2017-06-11 08:38:26.00 629.498 10:34:21 Yes
43 Hammon Racing & Dirty Birds - AZ 0062-AU16-DWI BB C 1 2017-06-11 08:39:42.00 628.749 10:35:37 Yes
44 D & L Lofts - BC 16111-CU16-CU DC C 2 2017-06-11 08:54:51.00 619.919 10:50:46 Yes
45 Danny Lum - HI 6759-AU16-HIC BB H 1 2017-06-11 09:34:40.00 597.855 11:30:35 Yes
46 Hi-Cal Connection - CA 0736-AU16-HICA BB C 2 2017-06-11 09:34:58.00 597.694 11:30:53 Yes
47 Racing Pigeon Mall - WA 0647-AU16-RPM BB C 3 2017-06-11 09:45:02.00 592.365 11:40:57 Yes
48 Joe Zarachowicz - MD 1358-IF16-CCC DC H 1 2017-06-11 10:12:04.00 578.513 12:07:59 Yes
49 Western Loft - CA 0332-AU16-CHUI BB H 1 2017-06-11 10:20:31.00 574.316 12:16:26 Yes
50 Ganus Family Loft - IN 0975-AU16-GFL BB H 2 2017-06-11 10:28:24.00 570.454 12:24:19 Yes
51 Dave Dudley - CO 16161-AU16-PUEB BBWF H 2 2017-06-11 10:32:50.00 568.305 12:28:45 Yes
52 Mario Rodriguez - AZ 5365-AU16-ARPU RC C 1 2017-06-11 10:37:06.00 566.252 12:33:01 Yes
53 Rueter Family Loft - OR 6262-AU16-CORP BC C 1 2017-06-11 10:44:24.00 562.773 12:40:19 Yes
54 Scott/Carol Team - UT 0249-AU16-DWI BB H 4 2017-06-11 10:58:16.00 556.283 12:54:11 Yes
55 Silver Dollar Loft - CO 0105-AU16-SD BBSP C 5 2017-06-11 11:40:24.00 537.448 13:36:19 Yes
56 Kwan Loft - CA 0670-AU16-KWAN BB C 1 2017-06-11 11:40:56.00 537.218 13:36:51 Yes
57 Chen Loft - PA 0091-IF16-LU BC H 3 2017-06-11 11:42:17.00 536.636 13:38:12 Yes
58 Pelican Loft - ID 1548-AU16-IDA BB C 1 2017-06-11 11:51:36.00 532.654 13:47:31 Yes
59 Hammon Racing & Bk - AZ 0400-AU16-DWI BB H 1 2017-06-11 11:52:06.00 532.442 13:48:01 Yes
60 So & Ca Family Loft - NY 0445-IF16-BXC "MORNING SUN" BB H 1 2017-06-11 12:17:29.00 521.895 14:13:24 Yes
61 Sonny Loft - IL 1418-AU16-CHI Hot For Teacher BC H 1 2017-06-11 12:59:30.00 505.327 14:55:25 Yes
62 Eagle Ridge Lofts - WY 16010-AU16-EAGL BC C 2 2017-06-11 13:20:22.00 497.483 15:16:17 Yes
63 Sonny Loft - IL 1417-AU16-CHI The Wrench BB C 2 2017-06-11 13:38:44.00 490.778 15:34:39 Yes
64 Eagle Ridge Lofts - WY 16019-AU16-EAGL DCWF C 3 2017-06-11 14:32:10.00 472.261 16:28:05 Yes
65 Danny Lum - HI 6784-AU16-HIC BCWF C 2 2017-06-11 15:18:33.00 457.284 17:14:28 Yes
66 Marty Hansen - CA 36639-AU16-AA BLK C 2 2017-06-11 15:24:59.00 455.281 17:20:54 Yes
67 Peter Truong - CA 16578-AU16-ARPU BB H 1 2017-06-11 16:34:41.00 434.657 18:30:36 Yes
68 Stevens Family Loft Syndicate - UT 0749-AU16-DWI BB H 1 2017-06-11 16:56:50.00 428.489 18:52:45 Yes
69 Bert Bruno - UT 0991-IF16-NWC MLY H 4 2017-06-11 17:19:44.00 422.293 19:15:39 Yes
70 Haack Loft - CA 3143-AU16-JEDD BC H 2 2017-06-11 17:40:49.00 416.745 19:36:44 Yes
71 Dick & Marty Lee - ID 1599-AU16-IDA BB H 1 2017-06-11 17:52:31.00 413.729 19:48:26 Yes
72 Baldwin & Tilson - NC 6385-AU16-TENT BB C 5 2017-06-11 18:11:08.00 409.019 20:07:03 Yes
73 Nanez Family Lofts - WI 38384-AU16-JEDD BB C 2 2017-06-11 19:01:41.00 396.753 20:57:36 Yes
74 Donald Johnson - MA 3552-AU16-FOYS BC H 1 2017-06-11 19:16:47.00 393.231 21:12:42 Yes
75 Ganus Family Loft - IN 0615-AU16-GFL BB H 3 2017-06-11 19:17:27.00 393.076 21:13:22 Yes
76 Hammon Racing & Cig - AZ 0061-AU16-DWI BB C 1 2017-06-11 19:32:00.00 389.744 21:27:55 Yes
77 Frank Locante - WI 16036-AU16-FRLO BBWF C 3 2017-06-12 07:41:18.00 337.046 25:56:13 Yes
78 Joe Zarachowicz - MD 1373-IF16-CCC BB H 2 2017-06-12 10:03:35.00 314.495 28:18:30 Yes
79 Scott/Carol Team - UT 0254-AU16-DWI BC C 5 2017-06-12 19:43:50.00 247.078 37:58:45 Yes
80 Western Loft - CA 0092-AU16-GREE PDWF H 2 2017-06-13 09:41:45.00 216.808 44:16:40 Yes
Empire Classic - ON 3870-IF16-EMPI BB C 00:00:00.00 0.000 Yes
Chen Loft - PA 0099-IF16-LU BB C 00:00:00.00 0.000 Yes
Donald Johnson - MA 0895-AU16-NB BB C 00:00:00.00 0.000 Yes
Rory Smith - UT 6104-AU16-CDR BC C 00:00:00.00 0.000 Yes
Mike Beam - KS 60745-AU16-TOP BLK H 00:00:00.00 0.000 Yes
Mike Beam - KS 60742-AU16-TOP BB C 00:00:00.00 0.000 Yes
Hwy 51 Loft - OK 6050-AU16-NWA BB C 00:00:00.00 0.000 Yes
Silver Dollar Loft - CO 0106-AU16-SD BC H 00:00:00.00 0.000 Yes
Silver Dollar Loft - CO 0116-AU16-SD BCWF C 00:00:00.00 0.000 Yes
2nd Chance Loft - ID 55471-AU16-ARPU 1x550 BB H 00:00:00.00 0.000 Lost
Gina\'s Loft - ID 55469-AU16-ARPU 88X50 BCWF C 00:00:00.00 0.000 Yes
Scott/Carol Team - UT 0250-AU16-DWI BB C 00:00:00.00 0.000 Yes
Sam Haslem - UT 0099-AU16-SAM SLT H 00:00:00.00 0.000 Yes
Sam Haslem - UT 0097-AU16-SAM BBWF H 00:00:00.00 0.000 Yes
Cantere-Lum - HI 8613-AU16-FSC DCPD H 00:00:00.00 0.000 Yes
Larry Kidd - WY 0016-AU16-4US DC C 00:00:00.00 0.000 Yes
Ganus Family Loft - IN 0996-AU16-GFL BC C 00:00:00.00 0.000 Yes
Danny Lum - HI 6944-AU16-HIC BC H 00:00:00.00 0.000 Yes
High Plains Drifter Loft - CO 6905-AU16-NCF BC C 00:00:00.00 0.000 Yes

There are 242 bird records

Note: These Race Results are unofficial and subject to change until verified by the Race Committee and declared final.

Click for forecast!